Time;durP1;ratioP1;P1;durP2;ratioP2;P2;SDS_P1;SDS_P2;PMS_P1;PMS_P2;Temp;Humidity;BMP_temperature;BMP_pressure;BME280_temperature;BME280_humidity;BME280_pressure;Samples;Min_cycle;Max_cycle;Signal;HPM_P1;HPM_P2
2021/08/18 00:00:27;;;;;;;13.15;7.70;;;;;;;11.02;100.00;96258.47;1036497;28;20018;-52
2021/08/18 00:00:58;;;;;;;16.63;8.45;;;;;;;11.01;100.00;96268.09;1039710;28;20491;-52
2021/08/18 00:01:29;;;;;;;15.73;8.05;;;;;;;10.99;100.00;96267.34;1038933;28;20041;-52
2021/08/18 00:01:59;;;;;;;14.32;7.93;;;;;;;10.95;100.00;96265.03;1035923;28;20484;-52
2021/08/18 00:02:30;;;;;;;12.90;7.43;;;;;;;10.98;100.00;96265.69;1036019;28;20025;-51
2021/08/18 00:03:03;;;;;;;13.35;8.02;;;;;;;10.94;100.00;96266.81;1035698;28;20028;-51
2021/08/18 00:03:34;;;;;;;13.45;8.38;;;;;;;10.94;100.00;96273.84;1035292;28;20451;-53
2021/08/18 00:04:04;;;;;;;14.73;8.35;;;;;;;10.94;100.00;96274.66;1035432;28;20042;-51
2021/08/18 00:04:35;;;;;;;14.98;7.78;;;;;;;10.98;100.00;96278.78;1035727;28;20010;-50
2021/08/18 00:05:10;;;;;;;15.90;8.13;;;;;;;10.97;100.00;96279.72;1036054;28;20476;-51
2021/08/18 00:05:41;;;;;;;14.38;8.25;;;;;;;10.98;100.00;96273.56;1035896;28;20105;-48
2021/08/18 00:06:12;;;;;;;14.52;7.45;;;;;;;10.95;100.00;96270.28;1035991;28;20029;-52
2021/08/18 00:06:43;;;;;;;16.80;8.60;;;;;;;10.96;100.00;96278.06;1035990;28;20024;-51
2021/08/18 00:07:13;;;;;;;14.25;8.25;;;;;;;11.00;100.00;96274.28;1036137;28;20532;-52
2021/08/18 00:07:44;;;;;;;13.05;7.70;;;;;;;11.05;100.00;96277.41;1036081;28;20029;-52
2021/08/18 00:08:15;;;;;;;15.27;8.57;;;;;;;10.98;100.00;96267.44;1036036;28;20072;-51
2021/08/18 00:08:46;;;;;;;14.18;8.27;;;;;;;10.99;100.00;96277.00;1035950;28;20010;-54
2021/08/18 00:09:16;;;;;;;14.50;8.13;;;;;;;11.00;100.00;96274.28;1035962;28;20025;-51
2021/08/18 00:09:48;;;;;;;13.05;7.65;;;;;;;10.99;100.00;96275.22;1036078;28;20018;-52
2021/08/18 00:10:19;;;;;;;14.65;7.95;;;;;;;11.00;100.00;96273.41;1035977;28;20100;-51
2021/08/18 00:10:49;;;;;;;14.60;7.30;;;;;;;11.04;100.00;96274.91;1035922;28;20503;-50
2021/08/18 00:11:20;;;;;;;16.63;8.02;;;;;;;11.02;100.00;96275.03;1036066;28;20014;-52
2021/08/18 00:11:51;;;;;;;14.38;7.70;;;;;;;10.98;100.00;96270.94;1036049;28;20022;-50
2021/08/18 00:12:21;;;;;;;16.85;7.85;;;;;;;11.02;100.00;96274.19;1035779;28;20018;-51
2021/08/18 00:12:52;;;;;;;13.40;7.93;;;;;;;11.01;100.00;96273.31;1035950;28;20152;-53
2021/08/18 00:13:23;;;;;;;12.73;8.10;;;;;;;11.02;100.00;96271.56;1031528;28;20101;-51
2021/08/18 00:13:53;;;;;;;14.32;7.85;;;;;;;11.01;100.00;96275.13;1027032;28;20448;-50
2021/08/18 00:14:24;;;;;;;14.80;8.55;;;;;;;10.99;100.00;96279.63;1023474;28;20051;-52
2021/08/18 00:14:54;;;;;;;15.50;7.88;;;;;;;11.04;100.00;96270.50;1019669;29;20506;-51
2021/08/18 00:15:26;;;;;;;12.82;7.93;;;;;;;11.00;100.00;96279.53;1023864;28;20011;-51
2021/08/18 00:15:56;;;;;;;14.43;7.82;;;;;;;10.92;100.00;96270.47;1023725;28;20026;-52
2021/08/18 00:16:27;;;;;;;13.45;8.80;;;;;;;10.96;100.00;96277.19;1023812;28;20109;-50
2021/08/18 00:16:58;;;;;;;15.02;8.23;;;;;;;10.86;100.00;96254.22;1035486;28;20109;-51
2021/08/18 00:17:28;;;;;;;13.90;8.38;;;;;;;10.99;100.00;96271.75;1031559;28;20392;-52
2021/08/18 00:18:00;;;;;;;12.82;8.10;;;;;;;11.02;100.00;96277.63;1019508;29;20409;-51
2021/08/18 00:18:31;;;;;;;13.65;8.20;;;;;;;10.98;100.00;96278.78;1023354;28;20019;-51
2021/08/18 00:19:02;;;;;;;15.32;8.32;;;;;;;11.03;100.00;96274.06;1023397;29;20110;-51
2021/08/18 00:19:32;;;;;;;15.73;7.78;;;;;;;11.03;100.00;96274.06;1024188;28;20147;-53
2021/08/18 00:20:04;;;;;;;12.98;7.45;;;;;;;11.06;100.00;96273.88;1031765;28;20056;-50
2021/08/18 00:20:34;;;;;;;15.98;8.80;;;;;;;11.06;100.00;96267.78;1023620;28;20025;-52
2021/08/18 00:21:05;;;;;;;15.63;8.35;;;;;;;11.07;100.00;96267.69;1023868;28;20022;-51
2021/08/18 00:21:36;;;;;;;13.38;8.50;;;;;;;11.05;100.00;96269.53;1019649;29;20046;-51
2021/08/18 00:22:07;;;;;;;12.98;7.80;;;;;;;11.08;100.00;96265.91;1016083;29;20042;-52
2021/08/18 00:22:37;;;;;;;15.57;9.00;;;;;;;11.07;100.00;96266.84;1019407;29;20107;-51
2021/08/18 00:23:08;;;;;;;15.18;8.13;;;;;;;11.05;100.00;96273.97;1023639;28;20087;-51
2021/08/18 00:23:38;;;;;;;18.63;9.05;;;;;;;11.02;100.00;96267.16;1022944;29;20420;-48
2021/08/18 00:24:09;;;;;;;14.70;8.48;;;;;;;10.99;100.00;96272.59;1023655;28;20521;-51
2021/08/18 00:24:39;;;;;;;16.35;8.93;;;;;;;11.03;100.00;96274.06;1027548;28;20098;-52
2021/08/18 00:25:10;;;;;;;15.48;7.70;;;;;;;11.05;100.00;96279.22;1027640;28;20556;-52
2021/08/18 00:25:41;;;;;;;14.63;8.18;;;;;;;11.09;100.00;96267.56;1027797;28;20042;-49
2021/08/18 00:26:12;;;;;;;15.43;8.30;;;;;;;11.07;100.00;96272.94;1035665;28;20097;-51
2021/08/18 00:26:44;;;;;;;14.27;8.30;;;;;;;11.07;100.00;96275.56;1035420;28;20022;-52
2021/08/18 00:27:15;;;;;;;12.77;8.20;;;;;;;11.09;100.00;96273.66;1031959;28;20019;-51
2021/08/18 00:27:45;;;;;;;16.05;8.95;;;;;;;11.06;100.00;96271.25;1027571;28;20026;-51
2021/08/18 00:28:16;;;;;;;17.75;9.35;;;;;;;11.06;100.00;96270.41;1019640;29;20031;-51
2021/08/18 00:28:47;;;;;;;15.10;8.40;;;;;;;11.08;100.00;96264.09;1019456;29;20492;-52
2021/08/18 00:29:18;;;;;;;15.98;8.60;;;;;;;11.06;100.00;96266.00;1019530;29;20032;-51
2021/08/18 00:29:48;;;;;;;14.23;8.52;;;;;;;11.05;100.00;96277.41;1020110;28;20031;-52
2021/08/18 00:30:19;;;;;;;16.27;8.77;;;;;;;11.09;100.00;96270.19;1027839;28;20495;-52
2021/08/18 00:30:50;;;;;;;17.33;9.35;;;;;;;11.07;100.00;96275.56;1027464;28;20030;-51
2021/08/18 00:31:21;;;;;;;16.42;9.82;;;;;;;11.09;100.00;96273.66;1031865;28;20018;-50
2021/08/18 00:31:52;;;;;;;19.90;10.32;;;;;;;11.12;100.00;96272.63;1035656;28;20026;-50
2021/08/18 00:32:23;;;;;;;14.95;9.45;;;;;;;11.09;100.00;96271.03;1031803;28;20030;-49
2021/08/18 00:32:54;;;;;;;14.13;8.73;;;;;;;11.10;100.00;96266.63;1027400;28;20038;-51
2021/08/18 00:33:24;;;;;;;19.15;9.95;;;;;;;11.13;100.00;96270.81;1023395;29;20026;-50
2021/08/18 00:33:55;;;;;;;18.38;9.82;;;;;;;11.15;100.00;96267.16;1019101;29;20518;-51
2021/08/18 00:34:26;;;;;;;16.20;9.13;;;;;;;11.11;100.00;96276.16;1019781;29;20478;-51
2021/08/18 00:34:56;;;;;;;18.15;9.95;;;;;;;11.11;100.00;96267.47;1023611;28;20051;-51
2021/08/18 00:35:27;;;;;;;16.80;9.52;;;;;;;11.14;100.00;96272.50;1028014;28;20022;-51
2021/08/18 00:35:58;;;;;;;18.05;9.68;;;;;;;11.13;100.00;96269.06;1035585;28;20037;-51
2021/08/18 00:36:29;;;;;;;15.75;9.15;;;;;;;11.15;100.00;96272.41;1031602;28;20022;-52
2021/08/18 00:36:59;;;;;;;15.95;9.00;;;;;;;11.15;100.00;96272.41;1027371;28;20130;-52
2021/08/18 00:37:30;;;;;;;17.83;9.70;;;;;;;11.18;100.00;96276.59;1027713;28;20058;-52
2021/08/18 00:38:01;;;;;;;15.85;8.95;;;;;;;11.15;100.00;96279.41;1027669;28;20026;-51
2021/08/18 00:38:32;;;;;;;19.60;9.10;;;;;;;11.15;100.00;96276.81;1031783;28;20373;-52
2021/08/18 00:39:03;;;;;;;17.27;9.75;;;;;;;11.16;100.00;96281.94;1027338;28;20026;-52
2021/08/18 00:39:33;;;;;;;22.08;9.82;;;;;;;11.20;100.00;96280.78;1027365;28;20176;-51
2021/08/18 00:40:05;;;;;;;17.52;9.82;;;;;;;11.22;100.00;96285.94;1027595;28;20106;-51
2021/08/18 00:40:36;;;;;;;17.20;9.43;;;;;;;11.18;100.00;96281.84;1027596;28;20517;-50
2021/08/18 00:41:07;;;;;;;18.80;11.05;;;;;;;11.11;100.00;96281.41;1024195;28;20105;-52
2021/08/18 00:41:37;;;;;;;20.23;10.73;;;;;;;11.11;100.00;96283.19;1032086;28;20101;-51
2021/08/18 00:42:08;;;;;;;16.80;9.85;;;;;;;11.09;100.00;96283.28;1031539;28;20036;-51
2021/08/18 00:42:39;;;;;;;18.05;10.25;;;;;;;11.11;100.00;96281.41;1027599;28;20037;-52
2021/08/18 00:43:09;;;;;;;18.77;10.48;;;;;;;11.15;100.00;96288.16;1031377;28;20018;-53
2021/08/18 00:43:40;;;;;;;17.27;10.18;;;;;;;11.18;100.00;96292.34;1034868;28;20100;-48
2021/08/18 00:44:11;;;;;;;18.65;10.40;;;;;;;11.21;100.00;96294.78;1031828;28;20481;-51
2021/08/18 00:44:41;;;;;;;19.50;9.93;;;;;;;11.24;100.00;96289.28;1027346;28;20049;-51
2021/08/18 00:45:13;;;;;;;20.23;10.27;;;;;;;11.24;100.00;96291.91;1023630;28;20023;-51
2021/08/18 00:45:44;;;;;;;17.67;10.15;;;;;;;11.27;100.00;96289.94;1023716;28;20024;-52
2021/08/18 00:46:15;;;;;;;17.48;9.35;;;;;;;11.27;100.00;96287.31;1023918;28;20027;-51
2021/08/18 00:46:54;;;;;;;17.02;10.32;;;;;;;11.26;100.00;96290.88;1021604;29;20110;-52
2021/08/18 00:47:26;;;;;;;19.17;10.55;;;;;;;11.31;100.00;96292.34;1019335;29;20024;-53
2021/08/18 00:47:58;;;;;;;18.98;10.98;;;;;;;11.27;100.00;96292.56;1025136;28;20035;-51
2021/08/18 00:48:29;;;;;;;19.25;10.35;;;;;;;11.27;100.00;96299.59;1025404;28;20083;-51
2021/08/18 00:48:59;;;;;;;20.90;10.77;;;;;;;11.25;100.00;96294.44;1019449;29;20087;-51
2021/08/18 00:49:30;;;;;;;19.63;10.32;;;;;;;11.29;100.00;96297.69;1019412;29;20111;-52
2021/08/18 00:50:01;;;;;;;18.00;10.20;;;;;;;11.26;100.00;96304.00;1020136;29;20054;-52
2021/08/18 00:50:31;;;;;;;19.25;10.27;;;;;;;11.27;100.00;96297.81;1019709;29;20569;-51
2021/08/18 00:51:02;;;;;;;17.25;10.48;;;;;;;11.31;100.00;96294.97;1019432;29;20087;-51
2021/08/18 00:51:33;;;;;;;18.15;10.15;;;;;;;11.33;100.00;96296.53;1019440;29;20639;-52
2021/08/18 00:52:04;;;;;;;17.90;10.52;;;;;;;11.35;100.00;96301.69;1019796;29;20418;-51
2021/08/18 00:52:35;;;;;;;18.35;10.63;;;;;;;11.40;100.00;96297.81;1015803;29;20016;-51
2021/08/18 00:53:06;;;;;;;18.02;10.68;;;;;;;11.41;100.00;96294.25;1015966;29;20063;-53
2021/08/18 00:53:37;;;;;;;20.35;10.85;;;;;;;11.38;100.00;96298.88;1018945;29;20016;-53
2021/08/18 00:54:07;;;;;;;18.67;10.50;;;;;;;11.38;100.00;96294.47;1019909;29;20355;-51
2021/08/18 00:54:38;;;;;;;17.92;10.52;;;;;;;11.45;100.00;96300.16;1023475;29;20011;-52
2021/08/18 00:55:10;;;;;;;17.85;10.32;;;;;;;11.41;100.00;96298.66;1023698;28;20118;-52
2021/08/18 00:55:41;;;;;;;21.88;11.05;;;;;;;11.44;100.00;96294.03;1023283;28;20099;-48
2021/08/18 00:56:12;;;;;;;20.50;11.18;;;;;;;11.45;100.00;96300.97;1023518;28;20089;-52
2021/08/18 00:56:44;;;;;;;19.75;11.07;;;;;;;11.44;100.00;96296.66;1023529;29;20023;-51
2021/08/18 00:57:15;;;;;;;16.65;10.23;;;;;;;11.45;100.00;96295.72;1023613;28;20574;-51
2021/08/18 00:57:46;;;;;;;20.30;11.15;;;;;;;11.50;100.00;96298.03;1019429;28;20016;-52
2021/08/18 00:58:17;;;;;;;20.20;11.35;;;;;;;11.48;100.00;96298.13;1019768;29;20398;-52
2021/08/18 00:58:47;;;;;;;19.50;10.82;;;;;;;11.47;100.00;96295.63;1019545;29;20490;-51
2021/08/18 00:59:18;;;;;;;21.02;10.85;;;;;;;11.46;100.00;96291.31;1019380;29;20106;-52
2021/08/18 00:59:49;;;;;;;22.17;11.65;;;;;;;11.50;100.00;96291.94;1015569;29;20024;-51
2021/08/18 01:00:20;;;;;;;19.88;11.70;;;;;;;11.50;100.00;96297.19;1015461;29;20177;-51
2021/08/18 01:00:50;;;;;;;24.60;12.52;;;;;;;11.48;100.00;96299.91;1023466;28;20019;-52
2021/08/18 01:01:21;;;;;;;19.40;11.20;;;;;;;11.50;100.00;96295.41;1023333;29;20037;-52
2021/08/18 01:01:53;;;;;;;21.73;11.43;;;;;;;11.46;100.00;96294.75;1020149;28;20043;-52
2021/08/18 01:02:23;;;;;;;19.10;10.27;;;;;;;11.50;100.00;96289.31;1027348;28;20018;-50
2021/08/18 01:02:54;;;;;;;21.13;11.00;;;;;;;11.50;100.00;96298.03;1023509;29;20066;-51
2021/08/18 01:03:25;;;;;;;21.77;10.75;;;;;;;11.53;100.00;96295.19;1019490;29;20028;-51
2021/08/18 01:03:55;;;;;;;21.38;11.38;;;;;;;11.54;100.00;96303.91;1015313;29;20111;-52
2021/08/18 01:04:26;;;;;;;24.20;11.38;;;;;;;11.46;100.00;96291.31;1011827;29;20448;-51
2021/08/18 01:04:57;;;;;;;18.45;11.35;;;;;;;11.46;100.00;96293.94;1011767;29;20035;-52
2021/08/18 01:05:29;;;;;;;22.23;11.13;;;;;;;11.48;100.00;96292.03;1012216;29;20113;-50
2021/08/18 01:06:00;;;;;;;20.10;11.35;;;;;;;11.48;100.00;96284.16;1021036;28;20474;-51
2021/08/18 01:06:32;;;;;;;18.13;10.45;;;;;;;11.47;100.00;96288.59;1024531;28;20023;-51
2021/08/18 01:07:03;;;;;;;21.20;11.70;;;;;;;11.47;100.00;96283.34;1028727;28;20030;-51
2021/08/18 01:07:34;;;;;;;19.52;11.38;;;;;;;11.48;100.00;96276.28;1028139;28;20023;-52
2021/08/18 01:08:05;;;;;;;21.95;11.35;;;;;;;11.51;100.00;96283.13;1028607;28;20082;-52
2021/08/18 01:08:36;;;;;;;19.20;11.70;;;;;;;11.48;100.00;96284.16;1032188;28;20077;-51
2021/08/18 01:09:08;;;;;;;21.35;11.82;;;;;;;11.47;100.00;96275.47;1032400;28;20109;-52
2021/08/18 01:09:38;;;;;;;19.52;11.85;;;;;;;11.43;100.00;96283.63;1036239;28;20129;-48
2021/08/18 01:10:11;;;;;;;19.92;11.70;;;;;;;11.44;100.00;96278.28;1032204;28;20272;-52
2021/08/18 01:10:41;;;;;;;22.55;11.65;;;;;;;11.50;100.00;96279.66;1028038;28;20512;-51
2021/08/18 01:11:13;;;;;;;18.58;10.48;;;;;;;11.46;100.00;96275.56;1028114;28;20018;-52
2021/08/18 01:11:45;;;;;;;22.80;11.43;;;;;;;11.46;100.00;96279.03;1024678;28;20023;-52
2021/08/18 01:12:16;;;;;;;19.42;11.25;;;;;;;11.47;100.00;96274.63;1024156;29;20030;-50
2021/08/18 01:12:47;;;;;;;17.73;10.43;;;;;;;11.42;100.00;96274.94;1024055;28;20039;-53
2021/08/18 01:13:19;;;;;;;19.20;10.52;;;;;;;11.43;100.00;96281.88;1024595;28;20027;-53
2021/08/18 01:13:50;;;;;;;23.40;11.48;;;;;;;11.42;100.00;96274.94;1024175;28;20449;-51
2021/08/18 01:14:21;;;;;;;23.65;12.40;;;;;;;11.42;100.00;96280.19;1028150;28;20134;-52
2021/08/18 01:14:51;;;;;;;22.00;12.15;;;;;;;11.41;100.00;96273.28;1024060;29;20425;-52
2021/08/18 01:15:24;;;;;;;22.58;11.98;;;;;;;11.39;100.00;96271.69;1020255;28;20118;-51
2021/08/18 01:15:54;;;;;;;21.35;11.32;;;;;;;11.37;100.00;96271.78;1024755;28;20522;-51
2021/08/18 01:16:25;;;;;;;23.50;12.48;;;;;;;11.37;100.00;96279.66;1028593;28;20057;-53
2021/08/18 01:16:55;;;;;;;22.25;11.70;;;;;;;11.40;100.00;96283.88;1032328;28;20113;-51
2021/08/18 01:17:31;;;;;;;23.67;11.98;;;;;;;11.39;100.00;96279.53;1028042;28;20082;-52
2021/08/18 01:18:04;;;;;;;20.35;11.52;;;;;;;11.39;100.00;96277.78;1024228;28;20042;-51
2021/08/18 01:18:34;;;;;;;17.50;11.05;;;;;;;11.41;100.00;96275.03;1021246;28;20027;-51
2021/08/18 01:19:06;;;;;;;19.25;11.38;;;;;;;11.40;100.00;96276.81;1029018;28;20033;-51
2021/08/18 01:19:37;;;;;;;19.33;10.35;;;;;;;11.42;100.00;96279.34;1028146;28;20046;-50
2021/08/18 01:20:09;;;;;;;18.00;10.35;;;;;;;11.42;100.00;96274.94;1028593;28;20113;-52
2021/08/18 01:20:41;;;;;;;19.60;11.23;;;;;;;11.43;100.00;96270.50;1028115;28;20420;-53
2021/08/18 01:21:12;;;;;;;19.02;10.88;;;;;;;11.43;100.00;96274.00;1024512;28;20481;-51
2021/08/18 01:21:43;;;;;;;17.90;10.55;;;;;;;11.47;100.00;96275.47;1024145;29;20019;-50
2021/08/18 01:22:14;;;;;;;19.67;10.35;;;;;;;11.43;100.00;96270.50;1016642;29;20036;-50
2021/08/18 01:22:44;;;;;;;19.15;10.48;;;;;;;11.44;100.00;96273.03;1020285;28;20048;-51
2021/08/18 01:23:15;;;;;;;20.45;10.98;;;;;;;11.50;100.00;96269.16;1019924;29;20070;-53
2021/08/18 01:23:46;;;;;;;18.48;11.35;;;;;;;11.52;100.00;96264.63;1019726;28;20095;-52
2021/08/18 01:24:18;;;;;;;17.60;10.45;;;;;;;11.51;100.00;96259.53;1020431;29;20108;-51
2021/08/18 01:24:48;;;;;;;19.20;9.88;;;;;;;11.48;100.00;96264.00;1020977;28;20039;-52
2021/08/18 01:25:19;;;;;;;21.40;11.27;;;;;;;11.53;100.00;96255.84;1019896;28;20115;-53
2021/08/18 01:25:50;;;;;;;18.13;10.52;;;;;;;11.56;100.00;96260.03;1018180;29;20028;-50
2021/08/18 01:26:20;;;;;;;17.02;9.93;;;;;;;11.58;100.00;96263.38;1020164;29;20550;-52
2021/08/18 01:26:51;;;;;;;17.02;10.15;;;;;;;11.58;100.00;96252.88;1020459;28;20026;-53
2021/08/18 01:27:22;;;;;;;18.48;11.20;;;;;;;11.57;100.00;96254.66;1027941;28;20023;-51
2021/08/18 01:27:54;;;;;;;17.55;9.93;;;;;;;11.55;100.00;96250.50;1023984;28;20083;-52
2021/08/18 01:28:26;;;;;;;18.40;10.27;;;;;;;11.54;100.00;96243.53;1028069;28;20397;-51
2021/08/18 01:28:58;;;;;;;16.52;10.27;;;;;;;11.55;100.00;96245.25;1028072;28;20058;-52
2021/08/18 01:29:29;;;;;;;19.83;10.23;;;;;;;11.56;100.00;96242.50;1020066;29;20024;-52
2021/08/18 01:30:00;;;;;;;19.83;10.57;;;;;;;11.57;100.00;96240.72;1020041;29;20603;-52
2021/08/18 01:30:30;;;;;;;18.75;10.77;;;;;;;11.54;100.00;96238.28;1020377;29;20043;-50
2021/08/18 01:31:01;;;;;;;16.20;10.10;;;;;;;11.51;100.00;96236.75;1024251;28;20011;-51
2021/08/18 01:31:32;;;;;;;17.73;10.45;;;;;;;11.43;100.00;96242.53;1024068;29;20126;-52
2021/08/18 01:32:03;;;;;;;19.92;10.35;;;;;;;11.47;100.00;96238.72;1024007;28;20026;-52
2021/08/18 01:32:56;;;;;;;20.58;10.25;;;;;;;11.42;100.00;96230.34;1024094;29;20102;-53
2021/08/18 01:33:27;;;;;;;21.88;11.10;;;;;;;11.45;100.00;96235.38;1023927;29;20023;-52
2021/08/18 01:33:59;;;;;;;18.83;11.43;;;;;;;11.48;100.00;96236.94;1022712;29;20028;-52
2021/08/18 01:34:30;;;;;;;17.73;10.75;;;;;;;11.50;100.00;96234.22;1031585;28;20463;-52
2021/08/18 01:35:01;;;;;;;17.35;10.93;;;;;;;11.48;100.00;96232.53;1028297;28;20011;-52
2021/08/18 01:35:36;;;;;;;20.27;10.73;;;;;;;11.53;100.00;96232.22;1028158;28;20065;-52
2021/08/18 01:36:07;;;;;;;19.52;10.90;;;;;;;11.55;100.00;96238.19;1024796;28;20027;-52
2021/08/18 01:36:38;;;;;;;20.13;11.30;;;;;;;11.53;100.00;96234.84;1021046;29;20402;-54
2021/08/18 01:37:08;;;;;;;17.83;10.10;;;;;;;11.54;100.00;96227.81;1024144;28;20134;-50
2021/08/18 01:37:39;;;;;;;21.02;11.30;;;;;;;11.56;100.00;96237.25;1024069;29;20593;-48
2021/08/18 01:38:11;;;;;;;19.55;10.88;;;;;;;11.55;100.00;96234.75;1019899;29;20486;-51
2021/08/18 01:38:42;;;;;;;16.52;10.02;;;;;;;11.54;100.00;96233.06;1020397;29;20107;-54
2021/08/18 01:39:12;;;;;;;18.73;10.38;;;;;;;11.51;100.00;96235.91;1024322;28;20023;-52
2021/08/18 01:39:43;;;;;;;18.15;11.25;;;;;;;11.48;100.00;96229.06;1016108;29;20112;-52
2021/08/18 01:40:13;;;;;;;20.35;10.75;;;;;;;11.38;100.00;96217.53;1016151;29;20088;-52
2021/08/18 01:40:47;;;;;;;20.55;11.27;;;;;;;11.44;100.00;96233.69;1016301;29;20103;-52
2021/08/18 01:41:17;;;;;;;19.00;11.38;;;;;;;11.48;100.00;96237.78;1014354;28;20399;-52
2021/08/18 01:41:48;;;;;;;18.25;10.13;;;;;;;11.49;100.00;96236.00;1028016;28;20026;-52
2021/08/18 01:42:18;;;;;;;18.23;10.73;;;;;;;11.52;100.00;96229.69;1023894;28;20403;-52
2021/08/18 01:42:50;;;;;;;17.65;10.30;;;;;;;11.55;100.00;96232.13;1020034;29;20055;-52
2021/08/18 01:43:21;;;;;;;19.77;10.80;;;;;;;11.52;100.00;96233.16;1019937;28;20020;-52
2021/08/18 01:43:51;;;;;;;21.13;12.15;;;;;;;11.51;100.00;96239.34;1015332;29;20083;-52
2021/08/18 01:44:22;;;;;;;22.40;11.75;;;;;;;11.50;100.00;96235.03;1016033;29;20203;-53
2021/08/18 01:44:53;;;;;;;18.10;10.32;;;;;;;11.54;100.00;96240.91;1016777;29;20028;-52
2021/08/18 01:45:26;;;;;;;18.95;10.38;;;;;;;11.49;100.00;96233.38;1024607;28;20027;-51
2021/08/18 01:45:57;;;;;;;20.15;11.05;;;;;;;11.44;100.00;96238.94;1032619;28;20109;-51
2021/08/18 01:46:27;;;;;;;20.67;10.77;;;;;;;11.46;100.00;96230.97;1031922;28;20053;-52
2021/08/18 01:46:59;;;;;;;16.58;10.80;;;;;;;11.45;100.00;96238.00;1025210;28;20023;-52
2021/08/18 01:47:29;;;;;;;18.30;10.68;;;;;;;11.44;100.00;96231.06;1023941;28;20081;-52
2021/08/18 01:48:09;;;;;;;17.80;9.48;;;;;;;11.47;100.00;96233.47;1027926;28;20074;-51
2021/08/18 01:48:39;;;;;;;20.20;10.88;;;;;;;11.50;100.00;96235.03;1031941;28;20037;-52
2021/08/18 01:49:10;;;;;;;20.40;11.18;;;;;;;11.50;100.00;96232.41;1027888;28;20034;-52
2021/08/18 01:49:40;;;;;;;19.05;10.85;;;;;;;11.46;100.00;96234.41;1032062;28;20222;-50
2021/08/18 01:50:11;;;;;;;20.70;11.50;;;;;;;11.46;100.00;96229.16;1032313;28;20041;-52
2021/08/18 01:50:43;;;;;;;20.25;11.48;;;;;;;11.52;100.00;96238.41;1036019;28;20026;-51
2021/08/18 01:51:14;;;;;;;21.35;11.85;;;;;;;11.48;100.00;96234.31;1032072;28;20386;-52
2021/08/18 01:51:44;;;;;;;21.55;11.60;;;;;;;11.47;100.00;96236.09;1031902;28;20069;-52
2021/08/18 01:52:16;;;;;;;18.95;10.73;;;;;;;11.50;100.00;96239.47;1023944;28;20046;-52
2021/08/18 01:52:50;;;;;;;19.30;10.88;;;;;;;11.46;100.00;96229.16;1027689;28;20116;-52
2021/08/18 01:53:22;;;;;;;18.05;10.73;;;;;;;11.48;100.00;96232.53;1023966;28;20163;-51
2021/08/18 01:53:54;;;;;;;20.35;10.73;;;;;;;11.43;100.00;96234.66;1019410;29;20075;-52
2021/08/18 01:54:25;;;;;;;20.30;11.40;;;;;;;11.48;100.00;96236.94;1024960;28;20027;-53
2021/08/18 01:54:56;;;;;;;21.85;11.00;;;;;;;11.53;100.00;96236.63;1028401;28;20019;-51
2021/08/18 01:55:26;;;;;;;19.10;11.00;;;;;;;11.51;100.00;96238.53;1027961;28;20460;-52
2021/08/18 01:55:58;;;;;;;21.58;11.50;;;;;;;11.48;100.00;96237.78;1023881;28;20078;-52
2021/08/18 01:56:29;;;;;;;20.77;11.23;;;;;;;11.49;100.00;96230.75;1020039;29;20401;-53
2021/08/18 01:56:59;;;;;;;19.60;10.75;;;;;;;11.45;100.00;96231.94;1020225;29;20023;-52
2021/08/18 01:57:31;;;;;;;21.10;11.73;;;;;;;11.45;100.00;96232.75;1020245;29;20104;-52
2021/08/18 01:58:01;;;;;;;21.02;9.93;;;;;;;11.43;100.00;96228.53;1020243;29;20023;-52
2021/08/18 01:58:34;;;;;;;22.50;10.75;;;;;;;11.42;100.00;96234.75;1027949;28;20027;-51
2021/08/18 01:59:05;;;;;;;20.73;10.88;;;;;;;11.44;100.00;96232.84;1028285;28;20407;-53
2021/08/18 01:59:35;;;;;;;22.63;11.88;;;;;;;11.44;100.00;96235.47;1027849;28;20053;-52
2021/08/18 02:00:07;;;;;;;19.63;10.52;;;;;;;11.42;100.00;96232.94;1024018;29;20098;-52
2021/08/18 02:00:37;;;;;;;18.67;10.82;;;;;;;11.40;100.00;96234.84;1025920;28;20019;-52
2021/08/18 02:01:10;;;;;;;20.13;10.75;;;;;;;11.42;100.00;96225.09;1020200;29;20083;-52
2021/08/18 02:01:42;;;;;;;20.20;10.68;;;;;;;11.44;100.00;96225.81;1024020;29;20485;-49
2021/08/18 02:02:12;;;;;;;18.45;11.07;;;;;;;11.41;100.00;96227.81;1025247;28;20503;-52
2021/08/18 02:02:44;;;;;;;19.20;11.07;;;;;;;11.42;100.00;96226.88;1032154;28;20025;-52
2021/08/18 02:03:14;;;;;;;21.33;10.70;;;;;;;11.42;100.00;96226.88;1035916;28;20053;-52
2021/08/18 02:03:45;;;;;;;20.40;11.27;;;;;;;11.41;100.00;96235.69;1035496;28;20106;-54
2021/08/18 02:04:16;;;;;;;19.38;10.93;;;;;;;11.39;100.00;96227.94;1036130;28;20045;-52
2021/08/18 02:04:46;;;;;;;21.77;11.35;;;;;;;11.40;100.00;96234.84;1023986;29;20097;-52
2021/08/18 02:05:17;;;;;;;18.02;10.82;;;;;;;11.39;100.00;96233.19;1019915;29;20027;-51
2021/08/18 02:05:47;;;;;;;22.10;11.23;;;;;;;11.40;100.00;96234.00;1020005;29;20026;-53
2021/08/18 02:06:19;;;;;;;25.38;12.02;;;;;;;11.36;100.00;96238.63;1020354;28;20035;-52
2021/08/18 02:06:49;;;;;;;20.02;12.05;;;;;;;11.37;100.00;96226.34;1024210;28;20387;-52
2021/08/18 02:07:20;;;;;;;20.00;10.85;;;;;;;11.38;100.00;96241.16;1023843;29;20062;-52
2021/08/18 02:07:51;;;;;;;19.13;11.55;;;;;;;11.38;100.00;96238.53;1019828;29;20031;-51
2021/08/18 02:08:21;;;;;;;20.00;10.32;;;;;;;11.40;100.00;96234.00;1016177;29;20020;-53
2021/08/18 02:08:52;;;;;;;22.35;12.13;;;;;;;11.39;100.00;96235.81;1020230;29;20174;-51
2021/08/18 02:09:22;;;;;;;18.63;10.77;;;;;;;11.41;100.00;96239.16;1019827;29;20028;-51
2021/08/18 02:09:53;;;;;;;19.25;10.57;;;;;;;11.38;100.00;96236.75;1023820;29;20019;-51
2021/08/18 02:10:24;;;;;;;19.65;11.02;;;;;;;11.39;100.00;96235.81;1024106;29;20111;-53
2021/08/18 02:10:55;;;;;;;16.55;10.32;;;;;;;11.41;100.00;96230.44;1020418;28;20554;-51
2021/08/18 02:11:26;;;;;;;18.92;10.43;;;;;;;11.38;100.00;96238.53;1020173;29;20027;-51
2021/08/18 02:11:56;;;;;;;19.33;10.63;;;;;;;11.41;100.00;96235.69;1023838;29;20110;-52
2021/08/18 02:12:27;;;;;;;18.15;10.32;;;;;;;11.41;100.00;96235.69;1024217;28;20048;-51
2021/08/18 02:12:58;;;;;;;18.55;11.65;;;;;;;11.43;100.00;96237.28;1020200;28;20028;-52
2021/08/18 02:13:29;;;;;;;17.27;10.38;;;;;;;11.44;100.00;96238.94;1023551;29;20019;-54
2021/08/18 02:13:59;;;;;;;21.30;10.55;;;;;;;11.44;100.00;96236.31;1023742;29;20086;-54
2021/08/18 02:14:30;;;;;;;19.27;10.88;;;;;;;11.42;100.00;96238.19;1024295;28;20512;-52
2021/08/18 02:15:01;;;;;;;22.55;11.30;;;;;;;11.39;100.00;96237.56;1028087;28;20019;-52
2021/08/18 02:15:32;;;;;;;19.08;11.02;;;;;;;11.40;100.00;96240.09;1031890;28;20101;-53
2021/08/18 02:16:04;;;;;;;20.08;11.07;;;;;;;11.42;100.00;96240.00;1027978;28;20030;-51
2021/08/18 02:16:34;;;;;;;18.42;10.73;;;;;;;11.41;100.00;96235.69;1020306;29;20046;-52
2021/08/18 02:17:05;;;;;;;22.80;11.68;;;;;;;11.43;100.00;96237.28;1023308;29;20316;-51
2021/08/18 02:17:35;;;;;;;21.35;11.18;;;;;;;11.43;100.00;96233.78;1027297;28;20018;-54
2021/08/18 02:18:07;;;;;;;20.77;11.85;;;;;;;11.44;100.00;96232.84;1015979;29;20024;-52
2021/08/18 02:18:38;;;;;;;18.45;10.35;;;;;;;11.44;100.00;96235.47;1027803;28;20436;-53
2021/08/18 02:19:09;;;;;;;18.10;10.68;;;;;;;11.43;100.00;96232.03;1027807;28;20023;-52
2021/08/18 02:19:39;;;;;;;18.90;10.90;;;;;;;11.41;100.00;96238.31;1020520;28;20529;-51
2021/08/18 02:20:13;;;;;;;21.40;10.95;;;;;;;11.44;100.00;96236.31;1024163;28;20023;-52
2021/08/18 02:20:45;;;;;;;19.52;12.07;;;;;;;11.44;100.00;96238.09;1027919;28;20023;-53
2021/08/18 02:21:15;;;;;;;20.58;11.43;;;;;;;11.40;100.00;96237.47;1028649;28;20022;-52
2021/08/18 02:21:46;;;;;;;21.70;11.18;;;;;;;11.43;100.00;96246.91;1024324;28;20106;-53
2021/08/18 02:22:17;;;;;;;18.80;10.57;;;;;;;11.43;100.00;96247.75;1027940;28;20034;-51